sensor_id;sensor_type;location;lat;lon;timestamp;pressure;altitude;pressure_sealevel;temperature;humidity
61786;BME280;47692;53.714;11.372;2022-08-14T00:00:37;101022.78;;;20.44;81.71
61786;BME280;47692;53.714;11.372;2022-08-14T00:03:03;101015.59;;;20.46;81.63
61786;BME280;47692;53.714;11.372;2022-08-14T00:05:28;101020.75;;;20.49;81.95
61786;BME280;47692;53.714;11.372;2022-08-14T00:07:54;101027.56;;;20.53;82.59
61786;BME280;47692;53.714;11.372;2022-08-14T00:10:21;101022.22;;;20.39;82.97
61786;BME280;47692;53.714;11.372;2022-08-14T00:12:50;101023.16;;;20.38;83.25
61786;BME280;47692;53.714;11.372;2022-08-14T00:15:27;101024.28;;;20.33;83.62
61786;BME280;47692;53.714;11.372;2022-08-14T00:17:53;101025.06;;;20.36;83.59
61786;BME280;47692;53.714;11.372;2022-08-14T00:20:22;101015.41;;;20.34;83.54
61786;BME280;47692;53.714;11.372;2022-08-14T00:22:48;101007.81;;;20.28;84.09
61786;BME280;47692;53.714;11.372;2022-08-14T00:25:13;101000.94;;;20.40;84.25
61786;BME280;47692;53.714;11.372;2022-08-14T00:27:38;100994.97;;;20.37;83.98
61786;BME280;47692;53.714;11.372;2022-08-14T00:30:06;101002.34;;;20.31;84.30
61786;BME280;47692;53.714;11.372;2022-08-14T00:32:33;101003.66;;;20.39;84.71
61786;BME280;47692;53.714;11.372;2022-08-14T00:34:58;100995.50;;;20.27;85.10
61786;BME280;47692;53.714;11.372;2022-08-14T00:37:26;100989.81;;;20.19;85.63
61786;BME280;47692;53.714;11.372;2022-08-14T00:39:54;100992.25;;;20.22;85.89
61786;BME280;47692;53.714;11.372;2022-08-14T00:42:21;100987.16;;;20.19;86.20
61786;BME280;47692;53.714;11.372;2022-08-14T00:44:46;100983.91;;;20.14;86.21
61786;BME280;47692;53.714;11.372;2022-08-14T00:47:13;100990.81;;;20.16;86.41
61786;BME280;47692;53.714;11.372;2022-08-14T00:49:38;100988.47;;;20.12;86.41
61786;BME280;47692;53.714;11.372;2022-08-14T00:52:04;100991.94;;;20.12;86.29
61786;BME280;47692;53.714;11.372;2022-08-14T00:54:30;100987.53;;;20.13;87.05
61786;BME280;47692;53.714;11.372;2022-08-14T00:56:55;100983.41;;;20.07;87.46
61786;BME280;47692;53.714;11.372;2022-08-14T00:59:23;100974.34;;;20.11;86.74
61786;BME280;47692;53.714;11.372;2022-08-14T01:01:49;100971.78;;;20.10;86.91
61786;BME280;47692;53.714;11.372;2022-08-14T01:04:15;100966.59;;;20.08;87.15
61786;BME280;47692;53.714;11.372;2022-08-14T01:06:40;100963.94;;;20.08;87.83
61786;BME280;47692;53.714;11.372;2022-08-14T01:09:06;100963.41;;;20.01;88.18
61786;BME280;47692;53.714;11.372;2022-08-14T01:11:32;100961.53;;;20.04;88.38
61786;BME280;47692;53.714;11.372;2022-08-14T01:13:58;100963.78;;;19.95;88.73
61786;BME280;47692;53.714;11.372;2022-08-14T01:16:26;100960.53;;;19.90;89.23
61786;BME280;47692;53.714;11.372;2022-08-14T01:18:51;100964.13;;;19.89;89.40
61786;BME280;47692;53.714;11.372;2022-08-14T01:21:38;100961.75;;;20.00;89.56
61786;BME280;47692;53.714;11.372;2022-08-14T01:24:05;100955.25;;;19.90;89.93
61786;BME280;47692;53.714;11.372;2022-08-14T01:26:35;100957.16;;;19.88;90.12
61786;BME280;47692;53.714;11.372;2022-08-14T01:29:02;100952.88;;;19.85;89.99
61786;BME280;47692;53.714;11.372;2022-08-14T01:31:30;100950.31;;;19.84;89.89
61786;BME280;47692;53.714;11.372;2022-08-14T01:34:00;100952.19;;;19.82;90.15
61786;BME280;47692;53.714;11.372;2022-08-14T01:36:27;100952.34;;;19.79;90.07
61786;BME280;47692;53.714;11.372;2022-08-14T01:38:55;100962.94;;;19.79;89.57
61786;BME280;47692;53.714;11.372;2022-08-14T01:41:25;100966.97;;;19.70;90.05
61786;BME280;47692;53.714;11.372;2022-08-14T01:43:52;100960.25;;;19.64;90.80
61786;BME280;47692;53.714;11.372;2022-08-14T01:46:21;100963.16;;;19.60;91.39
61786;BME280;47692;53.714;11.372;2022-08-14T01:48:47;100971.44;;;19.53;91.85
61786;BME280;47692;53.714;11.372;2022-08-14T01:51:15;100971.53;;;19.52;92.69
61786;BME280;47692;53.714;11.372;2022-08-14T01:53:43;100973.22;;;19.53;92.94
61786;BME280;47692;53.714;11.372;2022-08-14T01:56:10;100970.06;;;19.46;92.72
61786;BME280;47692;53.714;11.372;2022-08-14T01:58:36;100956.00;;;19.46;92.41
61786;BME280;47692;53.714;11.372;2022-08-14T02:01:05;100958.44;;;19.49;93.72
61786;BME280;47692;53.714;11.372;2022-08-14T02:03:31;100967.91;;;19.53;94.97
61786;BME280;47692;53.714;11.372;2022-08-14T02:06:00;100963.16;;;19.44;95.57
61786;BME280;47692;53.714;11.372;2022-08-14T02:08:27;100956.34;;;19.40;95.86
61786;BME280;47692;53.714;11.372;2022-08-14T02:10:58;100959.72;;;19.42;96.08
61786;BME280;47692;53.714;11.372;2022-08-14T02:13:49;100953.25;;;19.31;96.64
61786;BME280;47692;53.714;11.372;2022-08-14T02:16:17;100950.69;;;19.30;95.89
61786;BME280;47692;53.714;11.372;2022-08-14T02:18:43;100944.97;;;19.37;95.95
61786;BME280;47692;53.714;11.372;2022-08-14T02:21:10;100953.06;;;19.34;96.15
61786;BME280;47692;53.714;11.372;2022-08-14T02:23:37;100954.03;;;19.33;95.92
61786;BME280;47692;53.714;11.372;2022-08-14T02:26:14;100940.97;;;19.30;95.49
61786;BME280;47692;53.714;11.372;2022-08-14T02:28:40;100938.31;;;19.30;94.51
61786;BME280;47692;53.714;11.372;2022-08-14T02:31:05;100935.31;;;19.36;95.88
61786;BME280;47692;53.714;11.372;2022-08-14T02:33:33;100937.72;;;19.25;96.39
61786;BME280;47692;53.714;11.372;2022-08-14T02:35:59;100932.75;;;19.19;96.17
61786;BME280;47692;53.714;11.372;2022-08-14T02:38:25;100923.28;;;19.15;95.08
61786;BME280;47692;53.714;11.372;2022-08-14T02:40:50;100926.28;;;19.09;94.84
61786;BME280;47692;53.714;11.372;2022-08-14T02:43:15;100918.84;;;18.99;94.49
61786;BME280;47692;53.714;11.372;2022-08-14T02:45:41;100921.81;;;18.93;95.00
61786;BME280;47692;53.714;11.372;2022-08-14T02:48:07;100920.41;;;18.86;95.70
61786;BME280;47692;53.714;11.372;2022-08-14T02:50:34;100913.50;;;18.83;95.12
61786;BME280;47692;53.714;11.372;2022-08-14T02:53:01;100917.34;;;18.78;95.31
61786;BME280;47692;53.714;11.372;2022-08-14T02:55:27;100913.91;;;18.76;95.13
61786;BME280;47692;53.714;11.372;2022-08-14T02:57:56;100921.25;;;18.70;95.95
61786;BME280;47692;53.714;11.372;2022-08-14T03:00:21;100909.16;;;18.66;96.23
61786;BME280;47692;53.714;11.372;2022-08-14T03:02:47;100915.59;;;18.61;96.50
61786;BME280;47692;53.714;11.372;2022-08-14T03:05:15;100920.03;;;18.60;96.44
61786;BME280;47692;53.714;11.372;2022-08-14T03:07:40;100908.69;;;18.58;96.65
61786;BME280;47692;53.714;11.372;2022-08-14T03:10:06;100913.03;;;18.59;96.12
61786;BME280;47692;53.714;11.372;2022-08-14T03:12:31;100906.03;;;18.58;96.34
61786;BME280;47692;53.714;11.372;2022-08-14T03:14:57;100915.09;;;18.54;97.61
61786;BME280;47692;53.714;11.372;2022-08-14T03:17:23;100909.94;;;18.51;98.08
61786;BME280;47692;53.714;11.372;2022-08-14T03:19:48;100904.84;;;18.48;97.77
61786;BME280;47692;53.714;11.372;2022-08-14T03:22:16;100902.09;;;18.49;97.75
61786;BME280;47692;53.714;11.372;2022-08-14T03:24:41;100910.44;;;18.41;98.50
61786;BME280;47692;53.714;11.372;2022-08-14T03:27:07;100903.44;;;18.40;98.47
61786;BME280;47692;53.714;11.372;2022-08-14T03:29:32;100907.19;;;18.36;98.78
61786;BME280;47692;53.714;11.372;2022-08-14T03:31:57;100904.59;;;18.35;98.97
61786;BME280;47692;53.714;11.372;2022-08-14T03:34:24;100915.25;;;18.33;99.38
61786;BME280;47692;53.714;11.372;2022-08-14T03:36:50;100904.78;;;18.32;100.00
61786;BME280;47692;53.714;11.372;2022-08-14T03:39:21;100902.06;;;18.33;100.00
61786;BME280;47692;53.714;11.372;2022-08-14T03:41:52;100899.50;;;18.32;100.00
61786;BME280;47692;53.714;11.372;2022-08-14T03:44:17;100896.94;;;18.30;100.00
61786;BME280;47692;53.714;11.372;2022-08-14T03:46:43;100904.78;;;18.32;100.00
61786;BME280;47692;53.714;11.372;2022-08-14T03:49:09;100900.19;;;18.35;100.00
61786;BME280;47692;53.714;11.372;2022-08-14T03:51:35;100892.09;;;18.38;100.00
61786;BME280;47692;53.714;11.372;2022-08-14T03:54:03;100904.38;;;18.39;100.00
61786;BME280;47692;53.714;11.372;2022-08-14T03:56:30;100892.88;;;18.40;100.00
61786;BME280;47692;53.714;11.372;2022-08-14T03:58:58;100891.84;;;18.43;100.00
61786;BME280;47692;53.714;11.372;2022-08-14T04:01:25;100890.13;;;18.42;100.00
61786;BME280;47692;53.714;11.372;2022-08-14T04:03:53;100887.41;;;18.44;99.77
61786;BME280;47692;53.714;11.372;2022-08-14T04:06:22;100890.00;;;18.45;99.67
61786;BME280;47692;53.714;11.372;2022-08-14T04:08:48;100884.53;;;18.48;100.00
61786;BME280;47692;53.714;11.372;2022-08-14T04:11:18;100887.34;;;18.45;100.00
61786;BME280;47692;53.714;11.372;2022-08-14T04:13:44;100881.97;;;18.47;100.00
61786;BME280;47692;53.714;11.372;2022-08-14T04:16:14;100886.25;;;18.49;100.00
61786;BME280;47692;53.714;11.372;2022-08-14T04:18:42;100878.91;;;18.54;100.00
61786;BME280;47692;53.714;11.372;2022-08-14T04:21:08;100881.31;;;18.59;100.00
61786;BME280;47692;53.714;11.372;2022-08-14T04:23:35;100881.31;;;18.59;100.00
61786;BME280;47692;53.714;11.372;2022-08-14T04:26:04;100872.28;;;18.63;100.00
61786;BME280;47692;53.714;11.372;2022-08-14T04:28:30;100877.41;;;18.66;100.00
61786;BME280;47692;53.714;11.372;2022-08-14T04:30:56;100869.16;;;18.72;100.00
61786;BME280;47692;53.714;11.372;2022-08-14T04:33:21;100869.16;;;18.72;100.00
61786;BME280;47692;53.714;11.372;2022-08-14T04:35:49;100869.56;;;18.81;100.00
61786;BME280;47692;53.714;11.372;2022-08-14T04:38:15;100870.50;;;18.80;100.00
61786;BME280;47692;53.714;11.372;2022-08-14T04:41:00;100866.16;;;18.79;100.00
61786;BME280;47692;53.714;11.372;2022-08-14T04:43:43;100876.56;;;18.82;100.00
61786;BME280;47692;53.714;11.372;2022-08-14T04:46:11;100871.13;;;18.85;100.00
61786;BME280;47692;53.714;11.372;2022-08-14T04:48:37;100867.44;;;18.87;100.00
61786;BME280;47692;53.714;11.372;2022-08-14T04:51:05;100870.81;;;18.91;100.00
61786;BME280;47692;53.714;11.372;2022-08-14T04:53:32;100874.19;;;18.93;100.00
61786;BME280;47692;53.714;11.372;2022-08-14T04:55:58;100865.88;;;19.01;100.00
61786;BME280;47692;53.714;11.372;2022-08-14T04:58:26;100869.34;;;19.01;100.00
61786;BME280;47692;53.714;11.372;2022-08-14T05:00:54;100869.78;;;19.10;100.00
61786;BME280;47692;53.714;11.372;2022-08-14T05:03:21;100872.00;;;19.17;100.00
61786;BME280;47692;53.714;11.372;2022-08-14T05:05:48;100860.97;;;19.25;100.00
61786;BME280;47692;53.714;11.372;2022-08-14T05:08:14;100864.78;;;19.35;100.00
61786;BME280;47692;53.714;11.372;2022-08-14T05:10:42;100864.63;;;19.38;100.00
61786;BME280;47692;53.714;11.372;2022-08-14T05:13:09;100873.72;;;19.49;100.00
61786;BME280;47692;53.714;11.372;2022-08-14T05:15:35;100861.25;;;19.51;99.78
61786;BME280;47692;53.714;11.372;2022-08-14T05:18:06;100865.25;;;19.58;99.24
61786;BME280;47692;53.714;11.372;2022-08-14T05:20:33;100862.75;;;19.71;99.54
61786;BME280;47692;53.714;11.372;2022-08-14T05:22:59;100866.53;;;19.81;98.55
61786;BME280;47692;53.714;11.372;2022-08-14T05:25:25;100860.44;;;19.95;98.10
61786;BME280;47692;53.714;11.372;2022-08-14T05:27:51;100859.34;;;19.99;97.54
61786;BME280;47692;53.714;11.372;2022-08-14T05:30:16;100860.84;;;20.04;97.30
61786;BME280;47692;53.714;11.372;2022-08-14T05:32:44;100854.91;;;20.14;96.92
61786;BME280;47692;53.714;11.372;2022-08-14T05:35:09;100846.56;;;20.21;96.59
61786;BME280;47692;53.714;11.372;2022-08-14T05:37:36;100850.06;;;20.36;96.23
61786;BME280;47692;53.714;11.372;2022-08-14T05:40:04;100849.88;;;20.39;95.60
61786;BME280;47692;53.714;11.372;2022-08-14T05:42:29;100846.94;;;20.43;95.74
61786;BME280;47692;53.714;11.372;2022-08-14T05:44:54;100845.13;;;20.58;94.90
61786;BME280;47692;53.714;11.372;2022-08-14T05:47:20;100849.66;;;20.71;93.84
61786;BME280;47692;53.714;11.372;2022-08-14T05:49:45;100843.59;;;20.83;92.95
61786;BME280;47692;53.714;11.372;2022-08-14T05:52:12;100841.31;;;20.91;92.08
61786;BME280;47692;53.714;11.372;2022-08-14T05:54:38;100840.31;;;21.07;91.54
61786;BME280;47692;53.714;11.372;2022-08-14T05:57:03;100839.50;;;21.19;91.74
61786;BME280;47692;53.714;11.372;2022-08-14T05:59:28;100841.47;;;21.30;91.00
61786;BME280;47692;53.714;11.372;2022-08-14T06:01:54;100841.72;;;21.40;89.75
61786;BME280;47692;53.714;11.372;2022-08-14T06:04:19;100837.41;;;21.24;90.21
61786;BME280;47692;53.714;11.372;2022-08-14T06:06:45;100838.41;;;21.09;91.34
61786;BME280;47692;53.714;11.372;2022-08-14T06:09:10;100839.00;;;20.99;91.84
61786;BME280;47692;53.714;11.372;2022-08-14T06:11:36;100840.94;;;20.97;91.91
61786;BME280;47692;53.714;11.372;2022-08-14T06:14:01;100832.59;;;20.89;91.13
61786;BME280;47692;53.714;11.372;2022-08-14T06:16:27;100834.09;;;20.93;91.96
61786;BME280;47692;53.714;11.372;2022-08-14T06:18:55;100830.56;;;21.07;91.50
61786;BME280;47692;53.714;11.372;2022-08-14T06:21:21;100826.94;;;21.08;90.46
61786;BME280;47692;53.714;11.372;2022-08-14T06:23:46;100827.19;;;21.18;90.49
61786;BME280;47692;53.714;11.372;2022-08-14T06:26:12;100834.06;;;21.48;90.16
61786;BME280;47692;53.714;11.372;2022-08-14T06:28:37;100824.38;;;21.87;88.92
61786;BME280;47692;53.714;11.372;2022-08-14T06:31:03;100829.91;;;21.84;86.28
61786;BME280;47692;53.714;11.372;2022-08-14T06:33:28;100822.34;;;21.78;87.12
61786;BME280;47692;53.714;11.372;2022-08-14T06:35:53;100825.00;;;21.78;86.81
61786;BME280;47692;53.714;11.372;2022-08-14T06:38:20;100826.63;;;21.93;87.21
61786;BME280;47692;53.714;11.372;2022-08-14T06:40:47;100824.25;;;22.02;86.62
61786;BME280;47692;53.714;11.372;2022-08-14T06:43:14;100828.97;;;22.11;86.79
61786;BME280;47692;53.714;11.372;2022-08-14T06:45:41;100818.63;;;22.32;85.66
61786;BME280;47692;53.714;11.372;2022-08-14T06:48:19;100817.44;;;22.36;85.02
61786;BME280;47692;53.714;11.372;2022-08-14T06:50:46;100809.56;;;22.35;84.39
61786;BME280;47692;53.714;11.372;2022-08-14T06:53:12;100805.56;;;22.42;84.77
61786;BME280;47692;53.714;11.372;2022-08-14T06:55:45;100808.16;;;22.55;84.60
61786;BME280;47692;53.714;11.372;2022-08-14T06:58:12;100808.88;;;22.70;83.56
61786;BME280;47692;53.714;11.372;2022-08-14T07:00:38;100808.53;;;22.74;82.44
61786;BME280;47692;53.714;11.372;2022-08-14T07:03:04;100810.63;;;22.82;83.09
61786;BME280;47692;53.714;11.372;2022-08-14T07:05:48;100802.25;;;23.00;82.91
61786;BME280;47692;53.714;11.372;2022-08-14T07:08:29;100799.75;;;23.10;82.27
61786;BME280;47692;53.714;11.372;2022-08-14T07:10:57;100805.56;;;23.28;81.13
61786;BME280;47692;53.714;11.372;2022-08-14T07:13:23;100808.88;;;23.43;80.24
61786;BME280;47692;53.714;11.372;2022-08-14T07:15:53;100801.53;;;23.58;79.33
61786;BME280;47692;53.714;11.372;2022-08-14T07:18:27;100804.22;;;23.69;79.68
61786;BME280;47692;53.714;11.372;2022-08-14T07:20:53;100801.34;;;23.83;78.43
61786;BME280;47692;53.714;11.372;2022-08-14T07:23:19;100801.63;;;24.03;77.59
61786;BME280;47692;53.714;11.372;2022-08-14T07:25:48;100796.78;;;24.31;77.46
61786;BME280;47692;53.714;11.372;2022-08-14T07:28:19;100801.88;;;24.68;75.84
61786;BME280;47692;53.714;11.372;2022-08-14T07:30:45;100794.25;;;24.96;75.13
61786;BME280;47692;53.714;11.372;2022-08-14T07:33:11;100789.22;;;25.14;74.42
61786;BME280;47692;53.714;11.372;2022-08-14T07:35:38;100786.78;;;25.43;72.10
61786;BME280;47692;53.714;11.372;2022-08-14T07:38:05;100787.22;;;25.48;72.49
61786;BME280;47692;53.714;11.372;2022-08-14T07:40:31;100788.94;;;25.49;72.35
61786;BME280;47692;53.714;11.372;2022-08-14T07:42:56;100784.31;;;25.52;72.11
61786;BME280;47692;53.714;11.372;2022-08-14T07:45:21;100786.63;;;25.45;72.44
61786;BME280;47692;53.714;11.372;2022-08-14T07:47:47;100782.03;;;25.47;72.38
61786;BME280;47692;53.714;11.372;2022-08-14T07:50:17;100783.44;;;25.72;71.73
61786;BME280;47692;53.714;11.372;2022-08-14T07:52:45;100779.63;;;25.65;70.85
61786;BME280;47692;53.714;11.372;2022-08-14T07:55:15;100791.34;;;25.53;72.33
61786;BME280;47692;53.714;11.372;2022-08-14T07:57:44;100774.50;;;25.62;72.33
61786;BME280;47692;53.714;11.372;2022-08-14T08:00:15;100776.69;;;25.99;72.06
61786;BME280;47692;53.714;11.372;2022-08-14T08:02:43;100769.28;;;26.53;70.66
61786;BME280;47692;53.714;11.372;2022-08-14T08:05:10;100768.06;;;26.97;67.13
61786;BME280;47692;53.714;11.372;2022-08-14T08:07:38;100767.38;;;26.95;67.26
61786;BME280;47692;53.714;11.372;2022-08-14T08:10:09;100773.31;;;26.98;67.11
61786;BME280;47692;53.714;11.372;2022-08-14T08:12:55;100773.16;;;26.90;66.64
61786;BME280;47692;53.714;11.372;2022-08-14T08:15:22;100771.31;;;27.10;66.36
61786;BME280;47692;53.714;11.372;2022-08-14T08:17:48;100773.84;;;27.31;66.15
61786;BME280;47692;53.714;11.372;2022-08-14T08:20:15;100763.63;;;27.74;65.68
61786;BME280;47692;53.714;11.372;2022-08-14T08:22:41;100768.03;;;28.03;63.53
61786;BME280;47692;53.714;11.372;2022-08-14T08:25:08;100771.13;;;28.08;64.26
61786;BME280;47692;53.714;11.372;2022-08-14T08:27:33;100761.75;;;28.22;65.11
61786;BME280;47692;53.714;11.372;2022-08-14T08:30:07;100766.50;;;28.56;64.15
61786;BME280;47692;53.714;11.372;2022-08-14T08:32:41;100762.78;;;28.39;63.46
61786;BME280;47692;53.714;11.372;2022-08-14T08:35:16;100771.09;;;28.18;62.69
61786;BME280;47692;53.714;11.372;2022-08-14T08:37:44;100767.59;;;28.35;62.74
61786;BME280;47692;53.714;11.372;2022-08-14T08:40:10;100768.03;;;28.59;62.57
61786;BME280;47692;53.714;11.372;2022-08-14T08:42:36;100770.13;;;28.83;61.75
61786;BME280;47692;53.714;11.372;2022-08-14T08:45:01;100773.06;;;28.72;61.02
61786;BME280;47692;53.714;11.372;2022-08-14T08:47:37;100768.25;;;28.65;61.73
61786;BME280;47692;53.714;11.372;2022-08-14T08:50:03;100760.56;;;28.98;61.22
61786;BME280;47692;53.714;11.372;2022-08-14T08:52:49;100759.75;;;29.24;60.54
61786;BME280;47692;53.714;11.372;2022-08-14T08:55:22;100756.94;;;29.52;59.59
61786;BME280;47692;53.714;11.372;2022-08-14T08:57:56;100752.44;;;29.87;57.11
61786;BME280;47692;53.714;11.372;2022-08-14T09:00:22;100753.88;;;30.00;57.64
61786;BME280;47692;53.714;11.372;2022-08-14T09:05:28;100737.81;;;30.24;55.72
61786;BME280;47692;53.714;11.372;2022-08-14T09:07:53;100747.50;;;30.01;55.90
61786;BME280;47692;53.714;11.372;2022-08-14T09:10:18;100740.31;;;29.83;57.35
61786;BME280;47692;53.714;11.372;2022-08-14T09:12:45;100742.81;;;30.11;56.15
61786;BME280;47692;53.714;11.372;2022-08-14T09:15:10;100732.47;;;30.33;56.09
61786;BME280;47692;53.714;11.372;2022-08-14T09:17:35;100733.47;;;30.32;55.54
61786;BME280;47692;53.714;11.372;2022-08-14T09:20:02;100733.47;;;30.40;55.35
61786;BME280;47692;53.714;11.372;2022-08-14T09:22:29;100735.91;;;30.59;53.76
61786;BME280;47692;53.714;11.372;2022-08-14T09:24:55;100733.72;;;30.71;53.02
61786;BME280;47692;53.714;11.372;2022-08-14T09:27:21;100724.84;;;30.20;55.18
61786;BME280;47692;53.714;11.372;2022-08-14T09:29:46;100723.00;;;30.28;56.83
61786;BME280;47692;53.714;11.372;2022-08-14T09:32:15;100718.00;;;30.42;54.07
61786;BME280;47692;53.714;11.372;2022-08-14T09:35:00;100721.78;;;30.57;53.74
61786;BME280;47692;53.714;11.372;2022-08-14T09:37:39;100722.59;;;30.74;54.54
61786;BME280;47692;53.714;11.372;2022-08-14T09:40:20;100726.84;;;30.93;54.69
61786;BME280;47692;53.714;11.372;2022-08-14T09:45:52;100708.31;;;31.15;54.30
61786;BME280;47692;53.714;11.372;2022-08-14T09:48:23;100701.09;;;31.07;53.76
61786;BME280;47692;53.714;11.372;2022-08-14T09:50:50;100705.44;;;31.17;53.85
61786;BME280;47692;53.714;11.372;2022-08-14T09:53:39;100700.88;;;31.01;53.39
61786;BME280;47692;53.714;11.372;2022-08-14T09:56:11;100698.22;;;31.09;53.59
61786;BME280;47692;53.714;11.372;2022-08-14T09:58:44;100690.91;;;31.34;53.02
61786;BME280;47692;53.714;11.372;2022-08-14T10:01:17;100689.00;;;31.59;51.94
61786;BME280;47692;53.714;11.372;2022-08-14T10:03:51;100694.38;;;31.68;51.58
61786;BME280;47692;53.714;11.372;2022-08-14T10:06:22;100680.66;;;31.86;51.34
61786;BME280;47692;53.714;11.372;2022-08-14T10:08:56;100685.66;;;31.97;50.69
61786;BME280;47692;53.714;11.372;2022-08-14T10:11:26;100684.06;;;32.11;50.56
61786;BME280;47692;53.714;11.372;2022-08-14T10:13:56;100687.44;;;32.21;50.77
61786;BME280;47692;53.714;11.372;2022-08-14T10:16:24;100681.53;;;32.41;49.61
61786;BME280;47692;53.714;11.372;2022-08-14T10:19:07;100673.84;;;32.30;50.01
61786;BME280;47692;53.714;11.372;2022-08-14T10:21:33;100671.44;;;32.35;49.97
61786;BME280;47692;53.714;11.372;2022-08-14T10:23:59;100674.16;;;32.58;49.84
61786;BME280;47692;53.714;11.372;2022-08-14T10:26:25;100667.53;;;32.61;49.00
61786;BME280;47692;53.714;11.372;2022-08-14T10:28:52;100658.75;;;32.20;49.40
61786;BME280;47692;53.714;11.372;2022-08-14T10:31:27;100642.47;;;31.97;49.09
61786;BME280;47692;53.714;11.372;2022-08-14T10:34:10;100649.94;;;32.18;48.70
61786;BME280;47692;53.714;11.372;2022-08-14T10:36:40;100640.97;;;32.49;48.95
61786;BME280;47692;53.714;11.372;2022-08-14T10:39:15;100643.22;;;32.84;48.29
61786;BME280;47692;53.714;11.372;2022-08-14T10:41:42;100632.34;;;33.07;47.67
61786;BME280;47692;53.714;11.372;2022-08-14T10:44:20;100634.13;;;33.00;47.69
61786;BME280;47692;53.714;11.372;2022-08-14T10:46:53;100630.94;;;32.96;48.54
61786;BME280;47692;53.714;11.372;2022-08-14T10:49:24;100623.41;;;33.22;45.74
61786;BME280;47692;53.714;11.372;2022-08-14T10:54:30;100631.13;;;33.70;45.71
61786;BME280;47692;53.714;11.372;2022-08-14T10:56:57;100621.34;;;33.83;45.71
61786;BME280;47692;53.714;11.372;2022-08-14T10:59:23;100621.53;;;33.67;45.01
61786;BME280;47692;53.714;11.372;2022-08-14T11:01:48;100616.53;;;33.34;45.10
61786;BME280;47692;53.714;11.372;2022-08-14T11:04:21;100614.81;;;33.03;47.19
61786;BME280;47692;53.714;11.372;2022-08-14T11:06:53;100603.25;;;33.09;46.08
61786;BME280;47692;53.714;11.372;2022-08-14T11:09:19;100613.25;;;32.94;47.20
61786;BME280;47692;53.714;11.372;2022-08-14T11:11:44;100610.88;;;32.91;46.61
61786;BME280;47692;53.714;11.372;2022-08-14T11:14:09;100603.91;;;32.96;46.51
61786;BME280;47692;53.714;11.372;2022-08-14T11:16:35;100600.47;;;32.88;47.07
61786;BME280;47692;53.714;11.372;2022-08-14T11:19:03;100605.47;;;32.91;45.30
61786;BME280;47692;53.714;11.372;2022-08-14T11:21:30;100604.19;;;32.86;46.08
61786;BME280;47692;53.714;11.372;2022-08-14T11:23:57;100604.09;;;32.95;45.19
61786;BME280;47692;53.714;11.372;2022-08-14T11:26:25;100606.44;;;33.28;45.65
61786;BME280;47692;53.714;11.372;2022-08-14T11:28:52;100602.53;;;33.45;44.83
61786;BME280;47692;53.714;11.372;2022-08-14T11:31:22;100595.22;;;33.61;44.87
61786;BME280;47692;53.714;11.372;2022-08-14T11:33:52;100599.59;;;33.62;44.41
61786;BME280;47692;53.714;11.372;2022-08-14T11:36:23;100593.13;;;33.41;44.10
61786;BME280;47692;53.714;11.372;2022-08-14T11:38:52;100581.09;;;33.29;44.89
61786;BME280;47692;53.714;11.372;2022-08-14T11:41:18;100580.44;;;33.78;43.89
61786;BME280;47692;53.714;11.372;2022-08-14T11:43:45;100576.47;;;33.96;43.39
61786;BME280;47692;53.714;11.372;2022-08-14T11:46:11;100579.38;;;33.94;43.00
61786;BME280;47692;53.714;11.372;2022-08-14T11:49:03;100574.53;;;34.11;42.90
61786;BME280;47692;53.714;11.372;2022-08-14T11:51:29;100578.28;;;34.10;42.68
61786;BME280;47692;53.714;11.372;2022-08-14T11:54:02;100569.50;;;33.72;43.33
61786;BME280;47692;53.714;11.372;2022-08-14T11:56:36;100578.56;;;33.42;44.47
61786;BME280;47692;53.714;11.372;2022-08-14T11:59:02;100577.16;;;33.46;44.16
61786;BME280;47692;53.714;11.372;2022-08-14T12:01:30;100572.06;;;33.73;43.48
61786;BME280;47692;53.714;11.372;2022-08-14T12:04:07;100569.59;;;33.78;43.12
61786;BME280;47692;53.714;11.372;2022-08-14T12:06:49;100557.09;;;33.77;41.91
61786;BME280;47692;53.714;11.372;2022-08-14T12:09:32;100565.72;;;33.66;41.45
61786;BME280;47692;53.714;11.372;2022-08-14T12:11:58;100548.44;;;33.82;41.21
61786;BME280;47692;53.714;11.372;2022-08-14T12:14:24;100546.91;;;33.94;41.69
61786;BME280;47692;53.714;11.372;2022-08-14T12:17:05;100538.25;;;33.69;41.19
61786;BME280;47692;53.714;11.372;2022-08-14T12:19:51;100537.03;;;34.08;41.27
61786;BME280;47692;53.714;11.372;2022-08-14T12:24:58;100541.00;;;34.34;40.54
61786;BME280;47692;53.714;11.372;2022-08-14T12:30:07;100523.31;;;34.17;40.34
61786;BME280;47692;53.714;11.372;2022-08-14T12:32:43;100533.66;;;34.06;41.00
61786;BME280;47692;53.714;11.372;2022-08-14T12:35:11;100517.94;;;33.95;40.61
61786;BME280;47692;53.714;11.372;2022-08-14T12:37:46;100530.16;;;34.34;40.64
61786;BME280;47692;53.714;11.372;2022-08-14T12:40:14;100523.59;;;34.00;40.42
61786;BME280;47692;53.714;11.372;2022-08-14T12:42:40;100515.47;;;33.78;40.86
61786;BME280;47692;53.714;11.372;2022-08-14T12:45:08;100507.75;;;33.97;40.69
61786;BME280;47692;53.714;11.372;2022-08-14T12:47:38;100512.13;;;34.20;40.48
61786;BME280;47692;53.714;11.372;2022-08-14T12:50:04;100509.72;;;34.31;40.14
61786;BME280;47692;53.714;11.372;2022-08-14T12:52:40;100501.25;;;34.13;39.88
61786;BME280;47692;53.714;11.372;2022-08-14T12:55:14;100489.75;;;33.89;40.20
61786;BME280;47692;53.714;11.372;2022-08-14T12:57:45;100483.34;;;33.75;40.53